sensor_id;sensor_type;location;lat;lon;timestamp;temperature;humidity
17202;DHT22;8717;53.588;10.176;2023-03-14T00:00:08;10.30;99.90
17202;DHT22;8717;53.588;10.176;2023-03-14T00:02:36;10.20;99.90
17202;DHT22;8717;53.588;10.176;2023-03-14T00:05:04;10.20;99.90
17202;DHT22;8717;53.588;10.176;2023-03-14T00:07:33;10.20;99.90
17202;DHT22;8717;53.588;10.176;2023-03-14T00:10:02;10.10;99.90
17202;DHT22;8717;53.588;10.176;2023-03-14T00:12:30;10.10;99.90
17202;DHT22;8717;53.588;10.176;2023-03-14T00:14:57;10.00;99.90
17202;DHT22;8717;53.588;10.176;2023-03-14T00:17:27;10.10;99.90
17202;DHT22;8717;53.588;10.176;2023-03-14T00:19:54;10.00;99.90
17202;DHT22;8717;53.588;10.176;2023-03-14T00:22:21;10.00;99.90
17202;DHT22;8717;53.588;10.176;2023-03-14T00:24:48;9.90;99.90
17202;DHT22;8717;53.588;10.176;2023-03-14T00:27:15;9.90;99.90
17202;DHT22;8717;53.588;10.176;2023-03-14T00:29:42;9.90;99.90
17202;DHT22;8717;53.588;10.176;2023-03-14T00:32:09;9.90;99.90
17202;DHT22;8717;53.588;10.176;2023-03-14T00:34:40;9.90;99.90
17202;DHT22;8717;53.588;10.176;2023-03-14T00:37:07;9.90;99.90
17202;DHT22;8717;53.588;10.176;2023-03-14T00:39:34;9.90;99.90
17202;DHT22;8717;53.588;10.176;2023-03-14T00:42:00;9.80;99.90
17202;DHT22;8717;53.588;10.176;2023-03-14T00:44:28;9.80;99.90
17202;DHT22;8717;53.588;10.176;2023-03-14T00:46:55;9.80;99.90
17202;DHT22;8717;53.588;10.176;2023-03-14T00:49:22;9.80;99.90
17202;DHT22;8717;53.588;10.176;2023-03-14T00:51:52;9.80;99.90
17202;DHT22;8717;53.588;10.176;2023-03-14T00:54:19;9.80;99.90
17202;DHT22;8717;53.588;10.176;2023-03-14T00:56:46;9.70;99.90
17202;DHT22;8717;53.588;10.176;2023-03-14T00:59:13;9.70;99.90
17202;DHT22;8717;53.588;10.176;2023-03-14T01:01:40;9.70;99.90
17202;DHT22;8717;53.588;10.176;2023-03-14T01:04:07;9.70;99.90
17202;DHT22;8717;53.588;10.176;2023-03-14T01:06:34;9.70;99.90
17202;DHT22;8717;53.588;10.176;2023-03-14T01:09:03;9.60;99.90
17202;DHT22;8717;53.588;10.176;2023-03-14T01:11:32;9.60;99.90
17202;DHT22;8717;53.588;10.176;2023-03-14T01:13:59;9.60;99.90
17202;DHT22;8717;53.588;10.176;2023-03-14T01:16:30;9.60;99.90
17202;DHT22;8717;53.588;10.176;2023-03-14T01:19:00;9.60;99.90
17202;DHT22;8717;53.588;10.176;2023-03-14T01:21:29;9.60;99.90
17202;DHT22;8717;53.588;10.176;2023-03-14T01:23:57;9.60;99.90
17202;DHT22;8717;53.588;10.176;2023-03-14T01:26:28;9.60;99.90
17202;DHT22;8717;53.588;10.176;2023-03-14T01:28:55;9.60;99.90
17202;DHT22;8717;53.588;10.176;2023-03-14T01:31:23;9.70;99.90
17202;DHT22;8717;53.588;10.176;2023-03-14T01:33:51;9.60;99.90
17202;DHT22;8717;53.588;10.176;2023-03-14T01:36:18;9.60;99.90
17202;DHT22;8717;53.588;10.176;2023-03-14T01:38:45;9.60;99.90
17202;DHT22;8717;53.588;10.176;2023-03-14T01:41:16;9.70;99.90
17202;DHT22;8717;53.588;10.176;2023-03-14T01:43:45;9.70;99.90
17202;DHT22;8717;53.588;10.176;2023-03-14T01:46:29;9.70;99.90
17202;DHT22;8717;53.588;10.176;2023-03-14T01:49:13;9.70;99.90
17202;DHT22;8717;53.588;10.176;2023-03-14T01:51:48;9.60;99.90
17202;DHT22;8717;53.588;10.176;2023-03-14T01:54:20;9.60;99.90
17202;DHT22;8717;53.588;10.176;2023-03-14T01:56:51;9.60;99.90
17202;DHT22;8717;53.588;10.176;2023-03-14T01:59:21;9.50;99.90
17202;DHT22;8717;53.588;10.176;2023-03-14T02:01:49;9.50;99.90
17202;DHT22;8717;53.588;10.176;2023-03-14T02:04:17;9.50;99.90
17202;DHT22;8717;53.588;10.176;2023-03-14T02:06:50;9.50;99.90
17202;DHT22;8717;53.588;10.176;2023-03-14T02:09:21;9.50;99.90
17202;DHT22;8717;53.588;10.176;2023-03-14T02:11:49;9.50;99.90
17202;DHT22;8717;53.588;10.176;2023-03-14T02:14:49;9.50;99.90
17202;DHT22;8717;53.588;10.176;2023-03-14T02:17:35;9.50;99.90
17202;DHT22;8717;53.588;10.176;2023-03-14T02:20:32;9.50;99.90
17202;DHT22;8717;53.588;10.176;2023-03-14T02:23:01;9.50;99.90
17202;DHT22;8717;53.588;10.176;2023-03-14T02:25:35;9.40;99.90
17202;DHT22;8717;53.588;10.176;2023-03-14T02:28:06;9.40;99.90
17202;DHT22;8717;53.588;10.176;2023-03-14T02:30:34;9.40;99.90
17202;DHT22;8717;53.588;10.176;2023-03-14T02:33:04;9.40;99.90
17202;DHT22;8717;53.588;10.176;2023-03-14T02:35:35;9.30;99.90
17202;DHT22;8717;53.588;10.176;2023-03-14T02:38:10;9.30;99.90
17202;DHT22;8717;53.588;10.176;2023-03-14T02:40:42;9.30;99.90
17202;DHT22;8717;53.588;10.176;2023-03-14T02:43:10;9.40;99.90
17202;DHT22;8717;53.588;10.176;2023-03-14T02:45:43;9.40;99.90
17202;DHT22;8717;53.588;10.176;2023-03-14T02:48:20;9.40;99.90
17202;DHT22;8717;53.588;10.176;2023-03-14T02:50:48;9.40;99.90
17202;DHT22;8717;53.588;10.176;2023-03-14T02:53:19;9.40;99.90
17202;DHT22;8717;53.588;10.176;2023-03-14T02:55:48;9.40;99.90
17202;DHT22;8717;53.588;10.176;2023-03-14T02:58:18;9.50;99.90
17202;DHT22;8717;53.588;10.176;2023-03-14T03:00:49;9.40;99.90
17202;DHT22;8717;53.588;10.176;2023-03-14T03:03:17;9.40;99.90
17202;DHT22;8717;53.588;10.176;2023-03-14T03:05:48;9.40;99.90
17202;DHT22;8717;53.588;10.176;2023-03-14T03:08:15;9.40;99.90
17202;DHT22;8717;53.588;10.176;2023-03-14T03:10:42;9.40;99.90
17202;DHT22;8717;53.588;10.176;2023-03-14T03:13:09;9.40;99.90
17202;DHT22;8717;53.588;10.176;2023-03-14T03:15:37;9.40;99.90
17202;DHT22;8717;53.588;10.176;2023-03-14T03:18:05;9.50;99.90
17202;DHT22;8717;53.588;10.176;2023-03-14T03:20:31;9.40;99.90
17202;DHT22;8717;53.588;10.176;2023-03-14T03:22:59;9.50;99.90
17202;DHT22;8717;53.588;10.176;2023-03-14T03:25:26;9.50;99.90
17202;DHT22;8717;53.588;10.176;2023-03-14T03:27:53;9.50;99.90
17202;DHT22;8717;53.588;10.176;2023-03-14T03:30:21;9.60;99.90
17202;DHT22;8717;53.588;10.176;2023-03-14T03:32:49;9.50;99.90
17202;DHT22;8717;53.588;10.176;2023-03-14T03:35:16;9.60;99.90
17202;DHT22;8717;53.588;10.176;2023-03-14T03:37:43;9.60;99.90
17202;DHT22;8717;53.588;10.176;2023-03-14T03:40:10;9.60;99.90
17202;DHT22;8717;53.588;10.176;2023-03-14T03:42:37;9.60;99.90
17202;DHT22;8717;53.588;10.176;2023-03-14T03:45:08;9.60;99.90
17202;DHT22;8717;53.588;10.176;2023-03-14T03:47:40;9.60;99.90
17202;DHT22;8717;53.588;10.176;2023-03-14T03:50:09;9.60;99.90
17202;DHT22;8717;53.588;10.176;2023-03-14T03:52:36;9.60;99.90
17202;DHT22;8717;53.588;10.176;2023-03-14T03:55:03;9.70;99.90
17202;DHT22;8717;53.588;10.176;2023-03-14T03:57:30;9.70;99.90
17202;DHT22;8717;53.588;10.176;2023-03-14T03:59:57;9.80;99.90
17202;DHT22;8717;53.588;10.176;2023-03-14T04:02:24;9.80;99.90
17202;DHT22;8717;53.588;10.176;2023-03-14T04:04:51;9.80;99.90
17202;DHT22;8717;53.588;10.176;2023-03-14T04:07:19;9.80;99.90
17202;DHT22;8717;53.588;10.176;2023-03-14T04:09:46;9.80;99.90
17202;DHT22;8717;53.588;10.176;2023-03-14T04:12:27;9.70;99.90
17202;DHT22;8717;53.588;10.176;2023-03-14T04:14:58;9.70;99.90
17202;DHT22;8717;53.588;10.176;2023-03-14T04:17:25;9.70;99.90
17202;DHT22;8717;53.588;10.176;2023-03-14T04:19:52;9.70;99.90
17202;DHT22;8717;53.588;10.176;2023-03-14T04:22:23;9.60;99.90
17202;DHT22;8717;53.588;10.176;2023-03-14T04:24:51;9.60;99.90
17202;DHT22;8717;53.588;10.176;2023-03-14T04:27:19;9.60;99.90
17202;DHT22;8717;53.588;10.176;2023-03-14T04:29:47;9.60;99.90
17202;DHT22;8717;53.588;10.176;2023-03-14T04:32:17;9.70;99.90
17202;DHT22;8717;53.588;10.176;2023-03-14T04:34:44;9.70;99.90
17202;DHT22;8717;53.588;10.176;2023-03-14T04:37:11;9.70;99.90
17202;DHT22;8717;53.588;10.176;2023-03-14T04:39:42;9.70;99.90
17202;DHT22;8717;53.588;10.176;2023-03-14T04:42:15;9.70;99.90
17202;DHT22;8717;53.588;10.176;2023-03-14T04:44:42;9.70;99.90
17202;DHT22;8717;53.588;10.176;2023-03-14T04:47:10;9.70;99.90
17202;DHT22;8717;53.588;10.176;2023-03-14T04:49:38;9.70;99.90
17202;DHT22;8717;53.588;10.176;2023-03-14T04:52:07;9.70;99.90
17202;DHT22;8717;53.588;10.176;2023-03-14T04:54:35;9.70;99.90
17202;DHT22;8717;53.588;10.176;2023-03-14T04:57:03;9.80;99.90
17202;DHT22;8717;53.588;10.176;2023-03-14T04:59:33;9.80;99.90
17202;DHT22;8717;53.588;10.176;2023-03-14T05:02:11;9.80;99.90
17202;DHT22;8717;53.588;10.176;2023-03-14T05:04:56;9.80;99.90
17202;DHT22;8717;53.588;10.176;2023-03-14T05:07:42;9.80;99.90
17202;DHT22;8717;53.588;10.176;2023-03-14T05:10:19;9.90;99.90
17202;DHT22;8717;53.588;10.176;2023-03-14T05:13:06;9.90;99.90
17202;DHT22;8717;53.588;10.176;2023-03-14T05:16:07;9.90;99.90
17202;DHT22;8717;53.588;10.176;2023-03-14T05:18:44;10.00;99.90
17202;DHT22;8717;53.588;10.176;2023-03-14T05:21:31;10.00;99.90
17202;DHT22;8717;53.588;10.176;2023-03-14T05:24:16;10.00;99.90
17202;DHT22;8717;53.588;10.176;2023-03-14T05:27:18;10.00;99.90
17202;DHT22;8717;53.588;10.176;2023-03-14T05:29:58;10.00;99.90
17202;DHT22;8717;53.588;10.176;2023-03-14T05:32:43;10.10;99.90
17202;DHT22;8717;53.588;10.176;2023-03-14T05:35:18;10.00;99.90
17202;DHT22;8717;53.588;10.176;2023-03-14T05:38:03;10.00;99.90
17202;DHT22;8717;53.588;10.176;2023-03-14T05:40:42;10.00;99.90
17202;DHT22;8717;53.588;10.176;2023-03-14T05:43:28;10.00;99.90
17202;DHT22;8717;53.588;10.176;2023-03-14T05:46:10;9.90;99.90
17202;DHT22;8717;53.588;10.176;2023-03-14T05:48:51;10.00;99.90
17202;DHT22;8717;53.588;10.176;2023-03-14T05:51:32;9.90;99.90
17202;DHT22;8717;53.588;10.176;2023-03-14T05:54:25;9.80;99.90
17202;DHT22;8717;53.588;10.176;2023-03-14T05:57:11;9.80;99.90
17202;DHT22;8717;53.588;10.176;2023-03-14T06:00:11;9.70;99.90
17202;DHT22;8717;53.588;10.176;2023-03-14T06:02:54;9.70;99.90
17202;DHT22;8717;53.588;10.176;2023-03-14T06:05:27;9.60;99.90
17202;DHT22;8717;53.588;10.176;2023-03-14T06:07:59;9.60;99.90
17202;DHT22;8717;53.588;10.176;2023-03-14T06:10:27;9.50;99.90
17202;DHT22;8717;53.588;10.176;2023-03-14T06:12:54;9.50;99.90
17202;DHT22;8717;53.588;10.176;2023-03-14T06:15:21;9.50;99.90
17202;DHT22;8717;53.588;10.176;2023-03-14T06:17:50;9.50;99.90
17202;DHT22;8717;53.588;10.176;2023-03-14T06:20:18;9.50;99.90
17202;DHT22;8717;53.588;10.176;2023-03-14T06:22:46;9.40;99.90
17202;DHT22;8717;53.588;10.176;2023-03-14T06:25:13;9.40;99.90
17202;DHT22;8717;53.588;10.176;2023-03-14T06:27:43;9.40;99.90
17202;DHT22;8717;53.588;10.176;2023-03-14T06:30:11;9.40;99.90
17202;DHT22;8717;53.588;10.176;2023-03-14T06:32:38;9.40;99.90
17202;DHT22;8717;53.588;10.176;2023-03-14T06:35:09;9.30;99.90
17202;DHT22;8717;53.588;10.176;2023-03-14T06:37:41;9.30;99.90
17202;DHT22;8717;53.588;10.176;2023-03-14T06:40:09;9.30;99.90
17202;DHT22;8717;53.588;10.176;2023-03-14T06:43:08;9.30;99.90
17202;DHT22;8717;53.588;10.176;2023-03-14T06:45:36;9.40;99.90
17202;DHT22;8717;53.588;10.176;2023-03-14T06:48:03;9.30;99.90
17202;DHT22;8717;53.588;10.176;2023-03-14T06:50:42;9.30;99.90
17202;DHT22;8717;53.588;10.176;2023-03-14T06:53:10;9.40;99.90
17202;DHT22;8717;53.588;10.176;2023-03-14T06:55:40;9.40;99.90
17202;DHT22;8717;53.588;10.176;2023-03-14T06:58:08;9.40;99.90
17202;DHT22;8717;53.588;10.176;2023-03-14T07:00:41;9.50;99.90
17202;DHT22;8717;53.588;10.176;2023-03-14T07:03:10;9.50;99.90
17202;DHT22;8717;53.588;10.176;2023-03-14T07:05:38;9.60;99.90
17202;DHT22;8717;53.588;10.176;2023-03-14T07:08:06;9.60;99.90
17202;DHT22;8717;53.588;10.176;2023-03-14T07:10:35;9.60;99.90
17202;DHT22;8717;53.588;10.176;2023-03-14T07:13:02;9.60;99.90
17202;DHT22;8717;53.588;10.176;2023-03-14T07:15:33;9.60;99.90
17202;DHT22;8717;53.588;10.176;2023-03-14T07:18:04;9.60;99.90
17202;DHT22;8717;53.588;10.176;2023-03-14T07:20:31;9.60;99.90
17202;DHT22;8717;53.588;10.176;2023-03-14T07:22:59;9.60;99.90
17202;DHT22;8717;53.588;10.176;2023-03-14T07:25:40;9.60;99.90
17202;DHT22;8717;53.588;10.176;2023-03-14T07:28:08;9.60;99.90
17202;DHT22;8717;53.588;10.176;2023-03-14T07:30:37;9.60;99.90
17202;DHT22;8717;53.588;10.176;2023-03-14T07:33:10;9.70;99.90
17202;DHT22;8717;53.588;10.176;2023-03-14T07:35:37;9.70;99.90
17202;DHT22;8717;53.588;10.176;2023-03-14T07:38:04;9.70;99.90
17202;DHT22;8717;53.588;10.176;2023-03-14T07:40:36;9.80;99.90
17202;DHT22;8717;53.588;10.176;2023-03-14T07:43:06;9.80;99.90
17202;DHT22;8717;53.588;10.176;2023-03-14T07:45:46;9.90;99.90
17202;DHT22;8717;53.588;10.176;2023-03-14T07:48:13;9.90;99.90
17202;DHT22;8717;53.588;10.176;2023-03-14T07:50:40;9.90;99.90
17202;DHT22;8717;53.588;10.176;2023-03-14T07:53:06;10.00;99.90
17202;DHT22;8717;53.588;10.176;2023-03-14T07:55:33;10.10;99.90
17202;DHT22;8717;53.588;10.176;2023-03-14T07:58:00;10.10;99.90
17202;DHT22;8717;53.588;10.176;2023-03-14T08:00:28;10.10;99.90
17202;DHT22;8717;53.588;10.176;2023-03-14T08:02:55;10.20;99.90
17202;DHT22;8717;53.588;10.176;2023-03-14T08:05:21;10.30;99.90
17202;DHT22;8717;53.588;10.176;2023-03-14T08:07:48;10.30;99.90
17202;DHT22;8717;53.588;10.176;2023-03-14T08:10:15;10.30;99.90
17202;DHT22;8717;53.588;10.176;2023-03-14T08:12:47;10.30;99.90
17202;DHT22;8717;53.588;10.176;2023-03-14T08:15:14;10.30;99.90
17202;DHT22;8717;53.588;10.176;2023-03-14T08:17:42;10.40;99.90
17202;DHT22;8717;53.588;10.176;2023-03-14T08:20:10;10.30;99.90
17202;DHT22;8717;53.588;10.176;2023-03-14T08:22:38;10.30;99.90
17202;DHT22;8717;53.588;10.176;2023-03-14T08:25:05;10.30;99.90
17202;DHT22;8717;53.588;10.176;2023-03-14T08:27:32;10.30;99.90
17202;DHT22;8717;53.588;10.176;2023-03-14T08:29:59;10.30;99.90
17202;DHT22;8717;53.588;10.176;2023-03-14T08:32:25;10.40;99.90
17202;DHT22;8717;53.588;10.176;2023-03-14T08:34:53;10.40;99.90
17202;DHT22;8717;53.588;10.176;2023-03-14T08:37:20;10.50;99.90
17202;DHT22;8717;53.588;10.176;2023-03-14T08:39:47;10.60;99.90
17202;DHT22;8717;53.588;10.176;2023-03-14T08:42:13;10.70;99.90
17202;DHT22;8717;53.588;10.176;2023-03-14T08:44:40;10.70;99.90
17202;DHT22;8717;53.588;10.176;2023-03-14T08:47:07;10.80;99.90
17202;DHT22;8717;53.588;10.176;2023-03-14T08:49:34;10.80;99.90
17202;DHT22;8717;53.588;10.176;2023-03-14T08:52:03;10.90;99.90
17202;DHT22;8717;53.588;10.176;2023-03-14T08:54:29;10.90;99.90
17202;DHT22;8717;53.588;10.176;2023-03-14T08:56:56;11.00;99.90
17202;DHT22;8717;53.588;10.176;2023-03-14T08:59:23;11.00;99.90
17202;DHT22;8717;53.588;10.176;2023-03-14T09:01:50;11.00;99.90
17202;DHT22;8717;53.588;10.176;2023-03-14T09:04:17;11.00;99.90
17202;DHT22;8717;53.588;10.176;2023-03-14T09:06:44;11.10;99.90
17202;DHT22;8717;53.588;10.176;2023-03-14T09:09:11;11.10;99.90
17202;DHT22;8717;53.588;10.176;2023-03-14T09:11:39;11.10;99.90
17202;DHT22;8717;53.588;10.176;2023-03-14T09:14:06;11.10;99.90
17202;DHT22;8717;53.588;10.176;2023-03-14T09:16:33;11.10;99.90
17202;DHT22;8717;53.588;10.176;2023-03-14T09:19:00;11.00;99.90
17202;DHT22;8717;53.588;10.176;2023-03-14T09:21:26;11.00;99.90
17202;DHT22;8717;53.588;10.176;2023-03-14T09:23:53;11.00;99.90
17202;DHT22;8717;53.588;10.176;2023-03-14T09:26:21;10.90;99.90
17202;DHT22;8717;53.588;10.176;2023-03-14T09:28:48;10.90;99.90
17202;DHT22;8717;53.588;10.176;2023-03-14T09:31:15;10.90;99.90
17202;DHT22;8717;53.588;10.176;2023-03-14T09:33:41;10.90;99.90
17202;DHT22;8717;53.588;10.176;2023-03-14T09:36:10;10.80;99.90
17202;DHT22;8717;53.588;10.176;2023-03-14T09:38:37;10.80;99.90
17202;DHT22;8717;53.588;10.176;2023-03-14T09:41:13;10.80;99.90
17202;DHT22;8717;53.588;10.176;2023-03-14T09:43:43;10.80;99.90
17202;DHT22;8717;53.588;10.176;2023-03-14T09:46:12;10.80;99.90
17202;DHT22;8717;53.588;10.176;2023-03-14T09:48:39;10.80;99.90
17202;DHT22;8717;53.588;10.176;2023-03-14T09:51:13;10.80;99.90
17202;DHT22;8717;53.588;10.176;2023-03-14T09:53:42;10.80;99.90
17202;DHT22;8717;53.588;10.176;2023-03-14T09:56:13;10.80;99.90
17202;DHT22;8717;53.588;10.176;2023-03-14T09:58:43;10.80;99.90
17202;DHT22;8717;53.588;10.176;2023-03-14T10:01:15;10.80;99.90
17202;DHT22;8717;53.588;10.176;2023-03-14T10:03:42;10.70;99.90
17202;DHT22;8717;53.588;10.176;2023-03-14T10:06:11;10.70;99.90
17202;DHT22;8717;53.588;10.176;2023-03-14T10:08:39;10.60;99.90
17202;DHT22;8717;53.588;10.176;2023-03-14T10:11:09;10.60;99.90
17202;DHT22;8717;53.588;10.176;2023-03-14T10:13:48;10.50;99.90
17202;DHT22;8717;53.588;10.176;2023-03-14T10:16:15;10.30;99.90
17202;DHT22;8717;53.588;10.176;2023-03-14T10:18:44;10.20;99.90
17202;DHT22;8717;53.588;10.176;2023-03-14T10:21:21;10.00;99.90
17202;DHT22;8717;53.588;10.176;2023-03-14T10:23:48;9.70;99.90
17202;DHT22;8717;53.588;10.176;2023-03-14T10:26:18;9.60;99.90
17202;DHT22;8717;53.588;10.176;2023-03-14T10:28:47;9.30;99.90
17202;DHT22;8717;53.588;10.176;2023-03-14T10:31:15;9.10;99.90
17202;DHT22;8717;53.588;10.176;2023-03-14T10:33:43;8.90;99.90
17202;DHT22;8717;53.588;10.176;2023-03-14T10:36:24;8.80;99.90
17202;DHT22;8717;53.588;10.176;2023-03-14T10:38:58;8.50;99.90
17202;DHT22;8717;53.588;10.176;2023-03-14T10:41:32;8.30;99.90
17202;DHT22;8717;53.588;10.176;2023-03-14T10:44:00;8.20;99.90
17202;DHT22;8717;53.588;10.176;2023-03-14T10:46:32;8.00;99.90
17202;DHT22;8717;53.588;10.176;2023-03-14T10:49:27;7.70;99.90
17202;DHT22;8717;53.588;10.176;2023-03-14T10:51:54;7.50;99.90
17202;DHT22;8717;53.588;10.176;2023-03-14T10:54:22;7.30;99.90
17202;DHT22;8717;53.588;10.176;2023-03-14T10:56:57;7.10;99.90
17202;DHT22;8717;53.588;10.176;2023-03-14T10:59:24;6.90;99.90
17202;DHT22;8717;53.588;10.176;2023-03-14T11:01:58;6.70;99.90
17202;DHT22;8717;53.588;10.176;2023-03-14T11:04:41;6.50;99.90
17202;DHT22;8717;53.588;10.176;2023-03-14T11:07:14;6.30;99.90
17202;DHT22;8717;53.588;10.176;2023-03-14T11:09:49;6.10;99.90
17202;DHT22;8717;53.588;10.176;2023-03-14T11:12:31;6.00;99.90
17202;DHT22;8717;53.588;10.176;2023-03-14T11:15:02;5.90;99.90
17202;DHT22;8717;53.588;10.176;2023-03-14T11:17:36;5.80;99.90
17202;DHT22;8717;53.588;10.176;2023-03-14T11:20:18;5.70;99.90
17202;DHT22;8717;53.588;10.176;2023-03-14T11:22:55;5.60;99.90
17202;DHT22;8717;53.588;10.176;2023-03-14T11:25:32;5.50;99.90
17202;DHT22;8717;53.588;10.176;2023-03-14T11:28:08;5.30;99.90
17202;DHT22;8717;53.588;10.176;2023-03-14T11:30:41;5.30;99.90
17202;DHT22;8717;53.588;10.176;2023-03-14T11:33:14;5.20;99.90
17202;DHT22;8717;53.588;10.176;2023-03-14T11:35:47;5.10;99.90
17202;DHT22;8717;53.588;10.176;2023-03-14T11:38:27;5.00;99.90
17202;DHT22;8717;53.588;10.176;2023-03-14T11:40:57;4.90;99.90
17202;DHT22;8717;53.588;10.176;2023-03-14T11:43:28;4.80;99.90
17202;DHT22;8717;53.588;10.176;2023-03-14T11:46:01;4.70;99.90
17202;DHT22;8717;53.588;10.176;2023-03-14T11:48:36;4.70;99.90
17202;DHT22;8717;53.588;10.176;2023-03-14T11:51:09;4.60;99.90
17202;DHT22;8717;53.588;10.176;2023-03-14T11:53:48;4.60;99.90
17202;DHT22;8717;53.588;10.176;2023-03-14T11:56:20;4.60;99.90
17202;DHT22;8717;53.588;10.176;2023-03-14T11:58:55;4.60;99.90
17202;DHT22;8717;53.588;10.176;2023-03-14T12:04:18;4.70;99.90
17202;DHT22;8717;53.588;10.176;2023-03-14T12:06:48;4.80;99.90
17202;DHT22;8717;53.588;10.176;2023-03-14T12:09:16;4.90;99.90
17202;DHT22;8717;53.588;10.176;2023-03-14T12:11:47;5.00;99.90
17202;DHT22;8717;53.588;10.176;2023-03-14T12:14:22;5.10;99.90
17202;DHT22;8717;53.588;10.176;2023-03-14T12:16:53;5.20;99.90
17202;DHT22;8717;53.588;10.176;2023-03-14T12:19:34;5.20;99.90
17202;DHT22;8717;53.588;10.176;2023-03-14T12:22:17;5.30;99.90
17202;DHT22;8717;53.588;10.176;2023-03-14T12:24:50;5.20;99.90
17202;DHT22;8717;53.588;10.176;2023-03-14T12:30:27;5.20;99.90
17202;DHT22;8717;53.588;10.176;2023-03-14T12:36:29;5.20;99.90
17202;DHT22;8717;53.588;10.176;2023-03-14T12:39:20;5.20;99.90
17202;DHT22;8717;53.588;10.176;2023-03-14T12:41:51;5.20;99.90
17202;DHT22;8717;53.588;10.176;2023-03-14T12:44:45;5.20;99.90
17202;DHT22;8717;53.588;10.176;2023-03-14T12:50:15;5.30;99.90
17202;DHT22;8717;53.588;10.176;2023-03-14T12:52:52;5.30;99.90
17202;DHT22;8717;53.588;10.176;2023-03-14T12:55:31;5.30;99.90
17202;DHT22;8717;53.588;10.176;2023-03-14T12:58:05;5.40;99.90
17202;DHT22;8717;53.588;10.176;2023-03-14T13:00:35;5.40;99.90
17202;DHT22;8717;53.588;10.176;2023-03-14T13:03:17;5.50;99.90
17202;DHT22;8717;53.588;10.176;2023-03-14T13:05:52;5.50;99.90
17202;DHT22;8717;53.588;10.176;2023-03-14T13:08:36;5.50;99.90
17202;DHT22;8717;53.588;10.176;2023-03-14T13:11:05;5.50;99.90
17202;DHT22;8717;53.588;10.176;2023-03-14T13:13:35;5.60;99.90
17202;DHT22;8717;53.588;10.176;2023-03-14T13:16:04;5.60;99.90
17202;DHT22;8717;53.588;10.176;2023-03-14T13:18:35;5.60;99.90
17202;DHT22;8717;53.588;10.176;2023-03-14T13:21:05;5.60;99.90
17202;DHT22;8717;53.588;10.176;2023-03-14T13:23:36;5.70;99.90
17202;DHT22;8717;53.588;10.176;2023-03-14T13:26:09;5.70;99.90
17202;DHT22;8717;53.588;10.176;2023-03-14T13:28:36;5.80;99.90
17202;DHT22;8717;53.588;10.176;2023-03-14T13:31:03;5.90;99.90
17202;DHT22;8717;53.588;10.176;2023-03-14T13:33:30;6.00;99.90
17202;DHT22;8717;53.588;10.176;2023-03-14T13:35:58;6.00;99.90
17202;DHT22;8717;53.588;10.176;2023-03-14T13:38:27;6.10;99.90
17202;DHT22;8717;53.588;10.176;2023-03-14T13:40:57;6.20;99.90
17202;DHT22;8717;53.588;10.176;2023-03-14T13:43:28;6.20;99.90
17202;DHT22;8717;53.588;10.176;2023-03-14T13:46:01;6.30;99.90
17202;DHT22;8717;53.588;10.176;2023-03-14T13:48:30;6.30;99.90
17202;DHT22;8717;53.588;10.176;2023-03-14T13:51:00;6.30;99.90
17202;DHT22;8717;53.588;10.176;2023-03-14T13:53:27;6.40;99.90
17202;DHT22;8717;53.588;10.176;2023-03-14T13:55:56;6.30;99.90
17202;DHT22;8717;53.588;10.176;2023-03-14T13:58:25;6.30;99.50
17202;DHT22;8717;53.588;10.176;2023-03-14T14:01:06;6.30;98.60
17202;DHT22;8717;53.588;10.176;2023-03-14T14:03:39;6.30;99.10
17202;DHT22;8717;53.588;10.176;2023-03-14T14:06:10;6.30;99.10
17202;DHT22;8717;53.588;10.176;2023-03-14T14:08:42;6.30;99.20
17202;DHT22;8717;53.588;10.176;2023-03-14T14:11:14;6.30;99.40
17202;DHT22;8717;53.588;10.176;2023-03-14T14:13:44;6.30;99.20
17202;DHT22;8717;53.588;10.176;2023-03-14T14:16:12;6.30;99.00
17202;DHT22;8717;53.588;10.176;2023-03-14T14:18:39;6.30;97.90
17202;DHT22;8717;53.588;10.176;2023-03-14T14:21:06;6.30;98.60
17202;DHT22;8717;53.588;10.176;2023-03-14T14:23:35;6.30;98.40
17202;DHT22;8717;53.588;10.176;2023-03-14T14:26:05;6.30;98.10
17202;DHT22;8717;53.588;10.176;2023-03-14T14:28:35;6.30;98.10
17202;DHT22;8717;53.588;10.176;2023-03-14T14:31:19;6.30;97.80
17202;DHT22;8717;53.588;10.176;2023-03-14T14:33:54;6.30;97.90
17202;DHT22;8717;53.588;10.176;2023-03-14T14:36:23;6.30;97.80
17202;DHT22;8717;53.588;10.176;2023-03-14T14:38:52;6.30;97.90
17202;DHT22;8717;53.588;10.176;2023-03-14T14:41:19;6.30;97.40
17202;DHT22;8717;53.588;10.176;2023-03-14T14:43:48;6.30;97.40
17202;DHT22;8717;53.588;10.176;2023-03-14T14:46:17;6.30;97.00
17202;DHT22;8717;53.588;10.176;2023-03-14T14:48:45;6.30;97.00
17202;DHT22;8717;53.588;10.176;2023-03-14T14:51:23;6.30;97.60
17202;DHT22;8717;53.588;10.176;2023-03-14T14:54:01;6.30;97.20
17202;DHT22;8717;53.588;10.176;2023-03-14T14:56:28;6.30;96.90
17202;DHT22;8717;53.588;10.176;2023-03-14T14:58:58;6.30;97.20
17202;DHT22;8717;53.588;10.176;2023-03-14T15:01:32;6.20;96.70
17202;DHT22;8717;53.588;10.176;2023-03-14T15:03:59;6.30;95.30
17202;DHT22;8717;53.588;10.176;2023-03-14T15:06:28;6.30;95.70
17202;DHT22;8717;53.588;10.176;2023-03-14T15:08:57;6.30;95.20
17202;DHT22;8717;53.588;10.176;2023-03-14T15:11:25;6.30;95.20
17202;DHT22;8717;53.588;10.176;2023-03-14T15:13:53;6.30;94.60
17202;DHT22;8717;53.588;10.176;2023-03-14T15:16:23;6.20;93.70
17202;DHT22;8717;53.588;10.176;2023-03-14T15:18:53;6.20;94.40
17202;DHT22;8717;53.588;10.176;2023-03-14T15:21:20;6.20;94.90
17202;DHT22;8717;53.588;10.176;2023-03-14T15:23:47;6.20;94.40
17202;DHT22;8717;53.588;10.176;2023-03-14T15:26:16;6.20;94.10
17202;DHT22;8717;53.588;10.176;2023-03-14T15:28:43;6.10;94.30
17202;DHT22;8717;53.588;10.176;2023-03-14T15:31:16;6.10;94.80
17202;DHT22;8717;53.588;10.176;2023-03-14T15:33:45;6.10;94.60
17202;DHT22;8717;53.588;10.176;2023-03-14T15:36:20;6.00;94.70
17202;DHT22;8717;53.588;10.176;2023-03-14T15:38:48;6.00;95.00
17202;DHT22;8717;53.588;10.176;2023-03-14T15:41:15;6.00;95.10
17202;DHT22;8717;53.588;10.176;2023-03-14T15:43:41;6.00;94.30
17202;DHT22;8717;53.588;10.176;2023-03-14T15:46:09;6.10;95.10
17202;DHT22;8717;53.588;10.176;2023-03-14T15:48:35;6.10;95.10
17202;DHT22;8717;53.588;10.176;2023-03-14T15:51:04;6.10;95.00
17202;DHT22;8717;53.588;10.176;2023-03-14T15:53:30;6.10;94.90
17202;DHT22;8717;53.588;10.176;2023-03-14T15:55:57;6.10;94.50
17202;DHT22;8717;53.588;10.176;2023-03-14T15:58:24;6.10;93.90
17202;DHT22;8717;53.588;10.176;2023-03-14T16:00:50;6.10;94.00
17202;DHT22;8717;53.588;10.176;2023-03-14T16:03:17;6.00;93.90
17202;DHT22;8717;53.588;10.176;2023-03-14T16:05:44;6.00;94.00
17202;DHT22;8717;53.588;10.176;2023-03-14T16:08:12;5.90;93.40
17202;DHT22;8717;53.588;10.176;2023-03-14T16:10:38;5.80;93.70
17202;DHT22;8717;53.588;10.176;2023-03-14T16:13:06;5.80;93.70
17202;DHT22;8717;53.588;10.176;2023-03-14T16:15:33;5.70;93.90
17202;DHT22;8717;53.588;10.176;2023-03-14T16:17:59;5.60;93.70